Stepps, United Kingdom
Current Conditions -  °F | °C
As of 3:50 AM on Sunday 23 Nov 2014 (Local Time) from EGPF Reporting Station
Broken Clouds Broken Clouds  
Wind Chill:   Ceiling: 3300
Heat Index:   Visibility: 6mi
Dew Point:   Wind: 1mph
Humidity: 93%   Direction: 290°WNW
Pressure: 29.97"   Gusts: NA
Location:  55.89°N, 4.15°W
Report Text: EGPF 230350Z AUTO 29001KT 9999 BKN033 03/02 Q1015
Loading
Personal Weather Stations






























Interactive Weather Map New forecast layout! Learn more

10-Day Weather Forecast

Advertisements
Track Severe Weather on mobile